Latest Weather Observations for Camooweal

IDQ60801

Issued at 11:35 am EST Saturday 1 November 2014 (issued every 30 minutes, with the page automatically refreshed every 10 minutes)

About weather observations | Map of weather stations | Latest weather observations for QLD | Other Formats
Station Details ID: 037010 Name: CAMOOWEAL TOWNSHIP Lat: -19.92 Lon: 138.12 Height: 231.2 m
Data from the previous 72 hours. | See also: Recent months at Camooweal
Date/Time
EST
Temp
°C
App
Temp
°C
Dew
Point
Rel
Hum
%
Delta-T
°C
Wind Press
QNH
hPa
Press
MSL
hPa
Rain
since 9 am
mm
Dir
 
Spd
km/h
Gust
km/h
Spd
kts
Gust
kts
01/11:30am 37.0 35.1 13.1 24 14.7 NW 15 24 8 13 1011.8 1010.1 0.0
01/11:00am 36.2 33.7 13.6 25 14.0 WNW 19 24 10 13 1012.1 1010.4 0.0
01/10:30am 35.7 33.5 14.4 28 13.3 NNW 19 28 10 15 1012.6 1010.9 0.0
01/10:00am 34.8 33.1 14.7 30 12.6 NW 17 26 9 14 1013.0 1011.4 0.0
01/09:30am 33.3 31.8 15.3 34 11.3 NW 17 28 9 15 1013.1 1011.7 0.0
01/09:00am 31.8 30.6 16.1 38 9.9 NW 17 26 9 14 1013.1 1011.7 0.0
01/08:30am 30.9 30.2 16.5 42 9.1 W 15 22 8 12 1013.3 1011.9 0.0
01/08:00am 30.2 30.7 18.3 49 7.7 WNW 13 19 7 10 1012.6 1011.2 0.0
01/07:30am 29.1 29.9 18.2 51 7.0 WNW 11 17 6 9 1012.2 1010.8 0.0
01/07:00am 28.1 29.6 18.8 57 6.0 NNW 9 13 5 7 1011.8 1010.3 0.0
01/06:30am 27.7 29.0 19.2 60 5.5 N 11 15 6 8 1010.7 1009.2 0.0
01/06:00am 27.3 28.7 18.6 59 5.6 N 9 11 5 6 1010.0 1008.6 0.0
01/05:30am 27.9 28.9 18.6 57 6.0 N 11 13 6 7 1009.5 1008.1 0.0
01/05:00am 28.4 29.7 18.5 55 6.4 N 9 13 5 7 1009.2 1007.8 0.0
01/04:30am 29.1 29.8 18.8 53 6.7 N 13 19 7 10 1008.8 1007.4 0.0
01/04:00am 29.4 29.8 18.2 51 7.2 N 13 19 7 10 1008.7 1007.3 0.0
01/03:30am 29.9 30.4 18.3 49 7.5 N 13 19 7 10 1008.6 1007.2 0.0
01/03:00am 30.4 30.1 18.2 48 7.9 N 17 20 9 11 1008.5 1007.1 0.0
01/02:30am 30.7 30.3 18.1 47 8.2 N 17 20 9 11 1008.5 1007.1 0.0
01/02:00am 31.0 30.7 17.3 43 8.8 N 15 22 8 12 1008.7 1007.3 0.0
01/01:30am 31.4 30.5 16.9 41 9.2 N 17 24 9 13 1008.9 1007.5 0.0
01/01:00am 31.9 30.4 16.2 38 9.9 N 19 26 10 14 1008.9 1007.5 0.0
01/12:30am 32.4 30.5 15.8 36 10.5 N 20 26 11 14 1009.2 1007.8 0.0
01/12:00am 32.9 31.1 14.5 33 11.4 N 17 24 9 13 1009.2 1007.8 0.0
 
Date/Time
EST
Temp
°C
App
Temp
°C
Dew
Point
Rel
Hum
%
Delta-T
°C
Wind Press
QNH
hPa
Press
MSL
hPa
Rain
since 9 am
mm
Dir
 
Spd
km/h
Gust
km/h
Spd
kts
Gust
kts
31/11:30pm 33.0 31.1 13.1 30 12.1 N 15 19 8 10 1009.3 1007.9 0.0
31/11:00pm 32.8 31.3 11.9 28 12.5 N 11 15 6 8 1009.5 1008.1 0.0
31/10:30pm 33.4 31.5 11.9 27 12.8 N 13 19 7 10 1009.5 1008.1 0.0
31/10:00pm 33.7 31.5 10.9 25 13.4 N 13 17 7 9 1009.4 1008.0 0.0
31/09:30pm 33.7 32.0 9.7 23 13.9 N 9 13 5 7 1009.0 1007.6 0.0
31/09:00pm 34.6 32.3 9.1 21 14.7 N 11 15 6 8 1008.7 1007.3 0.0
31/08:30pm 35.4 32.5 8.3 19 15.4 NNE 13 17 7 9 1008.4 1007.0 0.0
31/08:00pm 35.5 33.2 7.5 18 15.8 N 9 13 5 7 1008.1 1006.6 0.0
31/07:30pm 37.0 34.4 7.9 17 16.6 N 11 15 6 8 1007.7 1006.2 0.0
31/07:00pm 37.8 34.4 7.7 16 17.2 N 15 20 8 11 1007.3 1005.8 0.0
31/06:30pm 38.5 34.1 7.3 15 17.8 N 20 32 11 17 1007.0 1005.5 0.0
31/06:00pm 39.0 34.6 6.7 14 18.3 NNW 19 26 10 14 1006.8 1005.3 0.0
31/05:30pm 39.8 36.7 3.8 11 19.6 SSW 9 17 5 9 1006.5 1005.0 0.0
31/05:00pm 40.2 37.8 4.1 11 19.8 SW 6 11 3 6 1006.6 1005.1 0.0
31/04:30pm 40.7 38.2 4.5 11 20.0 NE 7 15 4 8 1006.7 1005.2 0.0
31/04:00pm 40.5 36.8 4.3 11 19.9 WSW 13 20 7 11 1006.8 1005.3 0.0
31/03:30pm 40.0 37.0 4.0 11 19.7 NNE 9 13 5 7 1007.0 1005.5 0.0
31/03:00pm 40.1 37.7 5.3 12 19.4 S 7 15 4 8 1007.3 1005.8 0.0
31/02:30pm 39.6 36.5 3.7 11 19.5 NW 9 17 5 9 1007.7 1006.2 0.0
31/02:00pm 40.1 35.8 5.3 12 19.4 N 17 24 9 13 1008.0 1006.5 0.0
31/01:30pm 39.7 36.5 5.0 12 19.2 WNW 11 22 6 12 1008.4 1007.0 0.0
31/01:00pm 38.7 35.2 5.4 13 18.5 NW 13 22 7 12 1009.0 1007.6 0.0
31/12:30pm 38.1 34.7 6.0 14 17.9 NW 13 24 7 13 1009.6 1008.2 0.0
31/12:00pm 38.3 33.9 5.0 13 18.3 N 17 26 9 14 1010.2 1008.8 0.0
31/11:30am 37.1 33.2 5.2 14 17.5 N 15 22 8 12 1010.9 1009.4 0.0
31/11:00am 36.7 33.1 4.9 14 17.3 NNW 13 20 7 11 1011.4 1009.9 0.0
31/10:30am 36.0 32.9 7.1 17 16.2 N 13 24 7 13 1011.8 1010.3 0.0
31/10:00am 34.6 32.3 9.1 21 14.7 NW 11 19 6 10 1012.0 1010.5 0.0
31/09:30am 33.6 31.1 9.6 23 13.8 WNW 13 20 7 11 1012.1 1010.6 0.0
31/09:00am 32.4 30.4 11.6 28 12.3 NW 13 22 7 12 1012.0 1010.5 0.0
31/08:30am 30.8 28.8 12.7 33 10.8 NW 15 22 8 12 1011.8 1010.3 0.0
31/08:00am 29.4 28.5 14.8 41 9.0 NW 13 19 7 10 1011.7 1010.2 0.0
31/07:30am 27.7 28.1 15.4 47 7.6 N 7 15 4 8 1011.3 1009.8 0.0
31/07:00am 25.4 25.1 13.3 47 7.1 N 7 11 4 6 1011.1 1009.6 0.0
31/06:30am 24.4 23.4 11.0 43 7.6 N 7 9 4 5 1010.7 1009.2 0.0
31/06:00am 24.5 22.0 6.7 32 9.3 N 9 13 5 7 1010.0 1008.6 0.0
31/05:30am 25.7 23.0 5.8 28 10.3 NNE 9 13 5 7 1009.6 1008.2 0.0
31/05:00am 25.8 22.2 0.5 19 12.0 NE 9 11 5 6 1009.4 1008.0 0.0
31/04:30am 26.8 22.6 -3.9 13 13.5 NNE 9 13 5 7 1009.2 1007.8 0.0
31/04:00am 27.9 22.8 -5.2 11 14.4 NNE 13 17 7 9 1009.1 1007.7 0.0
31/03:30am 28.7 23.3 -4.6 11 14.7 NE 15 19 8 10 1009.1 1007.7 0.0
31/03:00am 29.1 23.3 -4.3 11 14.9 NE 17 22 9 12 1008.9 1007.5 0.0
31/02:30am 26.8 22.2 -3.9 13 13.5 E 11 15 6 8 1008.6 1007.2 0.0
31/02:00am 26.7 22.5 -4.0 13 13.5 ESE 9 11 5 6 1008.7 1007.3 0.0
31/01:30am 28.1 23.1 -3.9 12 14.2 SE 13 17 7 9 1009.0 1007.6 0.0
31/01:00am 28.6 23.7 -3.6 12 14.5 SE 13 17 7 9 1009.2 1007.8 0.0
31/12:30am 29.0 24.1 -3.2 12 14.6 SE 13 17 7 9 1009.5 1008.1 0.0
31/12:00am 29.9 25.0 -3.7 11 15.2 SE 13 17 7 9 1009.9 1008.5 0.0
 
Date/Time
EST
Temp
°C
App
Temp
°C
Dew
Point
Rel
Hum
%
Delta-T
°C
Wind Press
QNH
hPa
Press
MSL
hPa
Rain
since 9 am
mm
Dir
 
Spd
km/h
Gust
km/h
Spd
kts
Gust
kts
30/11:30pm 31.6 26.4 -2.4 11 15.9 SE 15 20 8 11 1010.1 1008.7 0.0
30/11:00pm 30.7 25.5 -3.1 11 15.6 SE 15 17 8 9 1010.2 1008.8 0.0
30/10:30pm 31.7 26.6 -2.3 11 16.0 SSE 15 19 8 10 1010.2 1008.8 0.0
30/10:00pm 32.6 27.2 -1.7 11 16.4 SSE 17 20 9 11 1010.1 1008.7 0.0
30/09:30pm 33.8 27.9 -2.0 10 17.1 SSE 19 24 10 13 1009.9 1008.5 0.0
30/09:00pm 33.1 28.5 -1.3 11 16.6 SSE 13 17 7 9 1009.7 1008.3 0.0
30/08:30pm 33.9 28.8 -2.0 10 17.2 SSE 15 17 8 9 1009.6 1008.2 0.0
30/08:00pm 35.1 30.1 -1.1 10 17.8 SSE 15 19 8 10 1009.2 1007.8 0.0
30/07:30pm 36.2 31.0 -0.2 10 18.2 SSE 17 20 9 11 1008.8 1007.4 0.0
30/07:00pm 37.0 31.6 -1.1 9 18.9 S 17 22 9 12 1008.5 1007.1 0.0
30/06:30pm 38.3 32.5 -0.1 9 19.5 SSE 20 28 11 15 1008.0 1006.5 0.0
30/06:00pm 39.0 34.6 0.4 9 19.9 SE 13 17 7 9 1007.7 1006.2 0.0
30/05:30pm 40.1 35.4 1.2 9 20.4 SSE 15 20 8 11 1007.4 1005.9 0.0
30/05:00pm 40.1 33.7 1.2 9 20.4 SSE 24 28 13 15 1007.3 1005.8 0.0
30/04:30pm 40.3 36.1 1.4 9 20.5 S 13 17 7 9 1007.4 1005.9 0.0
30/04:00pm 40.6 34.8 0.0 8 21.0 SSW 20 22 11 12 1007.4 1005.9 0.0
30/03:30pm 40.0 35.1 -0.5 8 20.7 S 15 24 8 13 1007.7 1006.2 0.0
30/03:00pm 40.3 33.3 -0.3 8 20.9 SSE 26 39 14 21 1008.0 1006.5 0.0
30/02:30pm 40.6 35.1 1.6 9 20.6 S 20 28 11 15 1008.4 1007.0 0.0
30/02:00pm 40.5 34.9 -0.1 8 20.9 SSE 19 32 10 17 1008.7 1007.3 0.0
30/01:30pm 40.2 36.1 -0.3 8 20.8 S 11 22 6 12 1009.2 1007.8 0.0
30/01:00pm 39.7 34.0 -0.7 8 20.5 SE 19 24 10 13 1010.0 1008.6 0.0
30/12:30pm 39.4 33.8 -2.7 7 20.7 SE 17 28 9 15 1010.5 1009.1 0.0
30/12:00pm 38.7 33.3 -1.4 8 20.0 SSE 17 26 9 14 1011.2 1009.7 0.0
30/11:30am 38.5 33.1 -1.6 8 19.9 SE 17 26 9 14 1011.7 1010.2 0.0
30/11:00am 37.9 32.2 -3.8 7 20.0 ESE 17 24 9 13 1012.2 1010.8 0.0
30/10:30am 38.2 32.5 -3.6 7 20.1 ESE 17 24 9 13 1012.5 1011.1 0.0
30/10:00am 37.0 31.6 -4.4 7 19.5 E 15 22 8 12 1012.7 1011.3 0.0
30/09:30am 36.0 29.8 -5.2 7 19.0 ESE 19 28 10 15 1013.0 1011.6 0.0
30/09:00am 35.0 28.7 -5.9 7 18.5 ESE 19 26 10 14 1013.0 1011.6 0.0
30/08:30am 33.4 28.3 -5.3 8 17.5 E 13 20 7 11 1012.8 1011.4 0.0
30/08:00am 31.2 26.6 -4.0 10 16.0 ESE 11 15 6 8 1012.7 1011.3 0.0
30/07:30am 26.5 22.8 -4.1 13 13.4 ESE 6 6 3 3 1012.6 1011.2 0.0
30/07:00am 22.6 18.9 -2.9 18 11.0 S 7 9 4 5 1012.5 1011.1 0.0
30/06:30am 21.0 17.3 -4.2 18 10.5 S 6 7 3 4 1012.3 1010.9 0.0
30/06:00am 22.3 19.8 -3.9 17 11.1 CALM 0 0 0 0 1011.9 1010.4 0.0
30/05:30am 22.0 18.7 -4.1 17 11.0 SE 4 7 2 4 1011.8 1010.3 0.0
30/05:00am 24.7 20.7 -5.5 13 12.7 ENE 7 9 4 5 1011.7 1010.2 0.0
30/04:30am 25.8 21.4 -5.7 12 13.3 NNE 9 11 5 6 1011.6 1010.1 0.0
30/04:00am 25.0 20.2 -6.3 12 13.0 ESE 11 13 6 7 1011.3 1009.8 0.0
30/03:30am 25.5 20.3 -6.0 12 13.2 SE 13 17 7 9 1011.1 1009.6 0.0
30/03:00am 26.4 21.3 -5.3 12 13.5 ESE 13 15 7 8 1011.4 1009.9 0.0
30/02:30am 27.3 22.9 -5.7 11 14.1 SE 9 11 5 6 1011.2 1009.7 0.0
30/02:00am 28.0 22.9 -5.2 11 14.4 SSE 13 17 7 9 1011.4 1009.9 0.0
30/01:30am 29.2 23.4 -4.3 11 14.9 SSE 17 24 9 13 1011.4 1009.9 0.0
30/01:00am 29.5 23.4 -4.0 11 15.0 SSE 19 24 10 13 1011.7 1010.2 0.0
30/12:30am 30.5 23.4 -4.5 10 15.7 SSE 24 30 13 16 1011.8 1010.3 0.0
30/12:00am 30.7 24.0 -4.4 10 15.8 SSE 22 28 12 15 1012.0 1010.5 0.0
 
Date/Time
EST
Temp
°C
App
Temp
°C
Dew
Point
Rel
Hum
%
Delta-T
°C
Wind Press
QNH
hPa
Press
MSL
hPa
Rain
since 9 am
mm
Dir
 
Spd
km/h
Gust
km/h
Spd
kts
Gust
kts
29/11:30pm 31.1 24.8 -4.1 10 16.0 SSE 20 30 11 16 1012.2 1010.8 0.0
29/11:00pm 32.0 25.8 -3.4 10 16.4 SSE 20 28 11 15 1012.2 1010.8 0.0
29/10:30pm 32.7 26.1 -2.9 10 16.7 S 22 30 12 16 1012.1 1010.6 0.0
29/10:00pm 33.3 26.8 -2.4 10 16.9 S 22 32 12 17 1011.9 1010.4 0.0
29/09:30pm 33.9 27.6 -0.7 11 16.9 SSE 22 30 12 16 1011.6 1010.1 0.0
29/09:00pm 34.6 28.4 -0.1 11 17.3 S 22 30 12 16 1011.2 1009.7 0.0
29/08:30pm 34.4 29.1 -0.3 11 17.2 S 17 20 9 11 1011.1 1009.6 0.0
29/08:00pm 33.8 29.4 0.5 12 16.6 S 13 15 7 8 1010.8 1009.3 0.0
29/07:30pm 34.6 30.5 -0.1 11 17.2 S 11 13 6 7 1010.4 1009.0 0.0
29/07:00pm 36.7 32.3 0.1 10 18.5 S 13 17 7 9 1010.1 1008.7 0.0
29/06:30pm 38.3 34.0 1.3 10 19.2 S 13 19 7 10 1009.8 1008.4 0.0
29/06:00pm 39.1 34.0 0.5 9 19.9 S 17 20 9 11 1009.5 1008.1 0.0
29/05:30pm 39.5 33.8 0.8 9 20.1 SSW 20 39 11 21 1009.3 1007.9 0.0
29/05:00pm 40.4 36.5 1.4 9 20.6 S 11 20 6 11 1009.4 1008.0 0.0
29/04:30pm 40.7 34.8 1.7 9 20.6 SSE 22 32 12 17 1009.3 1007.9 0.0
29/04:00pm 40.7 35.4 1.7 9 20.7 S 19 24 10 13 1009.5 1008.1 0.0
29/03:30pm 40.4 37.3 1.4 9 20.5 WSW 7 11 4 6 1009.6 1008.2 0.0
29/03:00pm 40.6 35.3 1.6 9 20.6 SSE 19 33 10 18 1010.0 1008.6 0.0
29/02:30pm 40.0 35.0 1.1 9 20.3 SE 17 32 9 17 1010.4 1009.0 0.0
29/02:00pm 39.6 36.4 0.9 9 20.1 S 7 15 4 8 1011.0 1009.5 0.0
29/01:30pm 40.5 37.0 1.5 9 20.6 SE 9 24 5 13 1011.5 1010.0 0.0
29/01:00pm 40.2 36.3 1.3 9 20.4 ESE 11 20 6 11 1012.0 1010.5 0.0
29/12:30pm 39.5 35.2 0.8 9 20.1 S 13 20 7 11 1012.6 1011.2 0.0
29/12:00pm 38.0 32.7 -0.3 9 19.4 SE 17 26 9 14 1013.1 1011.7 0.0

Other Formats:

Comma delimited format used in spreadsheet applications
http://www.bom.gov.au/fwo/IDQ60801/IDQ60801.94255.axf

JavaScript Object Notation format (JSON) in row-major order
http://www.bom.gov.au/fwo/IDQ60801/IDQ60801.94255.json